Time;durP1;ratioP1;P1;durP2;ratioP2;P2;SDS_P1;SDS_P2;PMS_P1;PMS_P2;Temp;Humidity;BMP_temperature;BMP_pressure;BME280_temperature;BME280_humidity;BME280_pressure;Samples;Min_cycle;Max_cycle;Signal;HPM_P1;HPM_P2
2021/07/28 00:00:18;;;;;;;20.00;11.47;;;;;;;25.47;57.72;95232.06;4901873;29;20456;-84
2021/07/28 00:02:45;;;;;;;15.03;9.87;;;;;;;25.39;58.13;95233.13;4901798;29;20980;-86
2021/07/28 00:05:13;;;;;;;17.77;10.50;;;;;;;25.33;58.07;95231.28;4901978;29;20538;-86
2021/07/28 00:07:40;;;;;;;11.70;9.90;;;;;;;25.34;57.88;95222.19;4901823;29;20456;-86
2021/07/28 00:10:10;;;;;;;19.67;12.17;;;;;;;25.29;58.88;95219.31;4901858;29;20467;-86
2021/07/28 00:12:37;;;;;;;16.10;10.10;;;;;;;25.26;58.35;95225.94;4901583;29;20560;-87
2021/07/28 00:15:07;;;;;;;13.87;10.50;;;;;;;25.20;58.28;95215.22;4901802;29;20463;-85
2021/07/28 00:17:33;;;;;;;22.43;10.87;;;;;;;25.18;59.10;95226.19;4901926;29;20467;-86
2021/07/28 00:20:04;;;;;;;12.10;9.93;;;;;;;25.21;58.89;95219.56;4902165;29;20439;-86
2021/07/28 00:25:21;;;;;;;21.90;10.83;;;;;;;25.15;59.48;95213.16;4900714;29;20446;-86
2021/07/28 00:27:49;;;;;;;15.87;10.47;;;;;;;25.10;59.42;95226.41;4867652;29;20459;-85
2021/07/28 00:30:18;;;;;;;17.70;10.10;;;;;;;25.04;60.03;95219.19;4900510;29;20494;-85
2021/07/28 00:32:45;;;;;;;16.47;11.20;;;;;;;25.01;59.85;95216.94;4901251;29;20500;-86
2021/07/28 00:35:12;;;;;;;14.70;11.70;;;;;;;25.01;60.09;95220.44;4901376;29;20466;-84
2021/07/28 00:37:40;;;;;;;17.53;10.90;;;;;;;24.95;60.49;95223.13;4901358;29;20450;-85
2021/07/28 00:40:08;;;;;;;17.57;11.33;;;;;;;24.92;61.59;95210.94;4901182;29;20447;-85
2021/07/28 00:42:36;;;;;;;16.03;13.10;;;;;;;24.84;61.68;95221.06;4901210;29;20527;-85
2021/07/28 00:45:04;;;;;;;16.90;11.57;;;;;;;24.75;61.68;95206.22;4901355;29;21245;-85
2021/07/28 00:47:31;;;;;;;20.63;12.40;;;;;;;24.73;62.10;95219.88;4852837;29;20455;-85
2021/07/28 00:49:59;;;;;;;15.23;11.97;;;;;;;24.66;62.13;95209.16;4900994;29;20448;-85
2021/07/28 00:52:27;;;;;;;23.80;11.87;;;;;;;24.61;62.39;95217.00;4901173;29;20512;-85
2021/07/28 00:54:54;;;;;;;13.63;12.07;;;;;;;24.64;62.98;95219.28;4901264;29;20443;-86
2021/07/28 00:57:22;;;;;;;15.80;12.80;;;;;;;24.69;62.63;95214.09;4901040;29;20549;-85
2021/07/28 00:59:50;;;;;;;18.00;12.27;;;;;;;24.67;62.68;95213.47;4901319;29;20562;-86
2021/07/28 01:02:17;;;;;;;17.90;13.17;;;;;;;24.59;63.08;95202.97;4900804;29;20548;-86
2021/07/28 01:04:45;;;;;;;14.27;12.53;;;;;;;24.53;63.20;95203.78;4901074;29;20523;-85
2021/07/28 01:07:12;;;;;;;14.00;12.10;;;;;;;24.51;63.35;95205.84;4867942;29;20868;-85
2021/07/28 01:09:39;;;;;;;17.60;11.30;;;;;;;24.47;63.61;95204.63;4900753;29;20443;-85
2021/07/28 01:12:07;;;;;;;18.10;12.17;;;;;;;24.44;62.94;95199.69;4900356;29;20522;-85
2021/07/28 01:14:34;;;;;;;14.30;11.93;;;;;;;24.40;62.57;95201.13;4900884;29;20799;-85
2021/07/28 01:33:51;;;;;;;16.37;13.03;;;;;;;23.89;63.11;95190.97;4899382;29;20541;-86
2021/07/28 01:36:20;;;;;;;18.07;13.33;;;;;;;23.87;63.37;95187.69;4900496;29;20463;-86
2021/07/28 01:38:48;;;;;;;16.70;13.30;;;;;;;23.84;63.56;95185.41;4900203;29;20518;-86
2021/07/28 01:41:15;;;;;;;18.90;12.80;;;;;;;23.83;63.18;95182.94;4900373;29;20445;-84
2021/07/28 01:43:43;;;;;;;26.00;12.87;;;;;;;23.84;63.43;95182.72;4882716;29;20454;-86
2021/07/28 01:56:42;;;;;;;18.23;11.73;;;;;;;24.16;63.01;95201.72;4898582;29;20521;-87
2021/07/28 01:59:09;;;;;;;15.60;12.10;;;;;;;24.03;63.51;95203.38;4900382;29;20554;-87
2021/07/28 02:01:36;;;;;;;15.43;11.30;;;;;;;23.92;64.22;95195.94;4900454;29;20839;-86
2021/07/28 02:04:03;;;;;;;20.33;13.53;;;;;;;24.02;63.99;95201.72;4900177;29;20525;-87
2021/07/28 02:06:30;;;;;;;16.13;11.47;;;;;;;23.96;63.68;95204.38;4900309;29;20537;-87
2021/07/28 02:08:57;;;;;;;16.00;12.00;;;;;;;23.84;64.69;95198.81;4900474;29;20818;-87
2021/07/28 02:11:24;;;;;;;17.83;11.80;;;;;;;23.89;64.37;95195.53;4900227;29;20541;-87
2021/07/28 02:13:53;;;;;;;15.73;11.43;;;;;;;23.93;64.59;95196.75;4898973;29;20486;-87
2021/07/28 02:16:20;;;;;;;14.40;12.00;;;;;;;23.95;64.56;95190.16;4900180;29;20895;-87
2021/07/28 02:18:47;;;;;;;16.00;11.77;;;;;;;23.89;64.49;95196.34;4899784;29;20965;-87
2021/07/28 02:24:35;;;;;;;22.43;11.90;;;;;;;23.88;65.09;95194.69;4898996;29;20470;-87
2021/07/28 02:27:02;;;;;;;14.73;13.13;;;;;;;23.86;64.48;95186.03;4899657;29;20830;-87
2021/07/28 02:29:31;;;;;;;22.33;12.50;;;;;;;23.79;65.30;95190.56;4899777;29;20444;-87
2021/07/28 02:31:59;;;;;;;14.07;12.03;;;;;;;23.73;65.43;95189.53;4899577;29;20448;-87
2021/07/28 02:34:26;;;;;;;13.70;12.30;;;;;;;23.73;65.40;95191.38;4899167;29;20492;-86
2021/07/28 02:36:53;;;;;;;13.73;12.43;;;;;;;23.73;65.46;95194.06;4899315;29;20458;-86
2021/07/28 02:39:20;;;;;;;18.70;12.50;;;;;;;23.73;65.70;95197.56;4899408;29;20497;-86
2021/07/28 02:41:47;;;;;;;24.87;12.13;;;;;;;23.70;65.59;95197.94;4899269;29;20448;-87
2021/07/28 02:44:14;;;;;;;14.77;12.70;;;;;;;23.67;65.14;95192.19;4899548;29;20838;-85
2021/07/28 02:46:42;;;;;;;16.70;12.67;;;;;;;23.68;65.56;95191.97;4899566;29;20524;-86
2021/07/28 02:49:10;;;;;;;14.85;12.63;;;;;;;23.72;66.13;95193.25;4898631;29;20543;-85
2021/07/28 02:51:37;;;;;;;16.20;11.13;;;;;;;23.71;67.55;95196.97;4899659;29;20210;-81
2021/07/28 02:54:04;;;;;;;20.57;12.40;;;;;;;23.90;66.89;95191.81;4850283;29;20491;-80
2021/07/28 02:56:30;;;;;;;13.10;11.70;;;;;;;24.18;65.53;95205.03;4850226;29;21294;-81
2021/07/28 02:58:57;;;;;;;27.73;13.93;;;;;;;24.34;63.66;95200.09;4898460;29;20472;-81
2021/07/28 03:01:24;;;;;;;14.67;12.40;;;;;;;24.39;63.10;95199.47;4898460;29;20476;-81
2021/07/28 03:03:53;;;;;;;20.23;13.60;;;;;;;24.54;62.68;95197.38;4898261;29;20940;-81
2021/07/28 03:06:19;;;;;;;18.50;13.00;;;;;;;24.54;61.47;95193.88;4898208;29;21071;-81
2021/07/28 03:08:46;;;;;;;20.90;12.83;;;;;;;24.48;62.06;95208.97;4898440;29;20441;-81
2021/07/28 03:11:13;;;;;;;21.87;13.40;;;;;;;24.57;61.41;95213.06;4898197;29;20791;-82
2021/07/28 03:13:40;;;;;;;21.43;13.50;;;;;;;24.65;61.44;95212.03;4898045;29;20501;-81
2021/07/28 03:16:08;;;;;;;15.60;12.27;;;;;;;24.67;61.57;95216.16;4865803;29;20477;-82
2021/07/28 03:18:35;;;;;;;25.37;12.60;;;;;;;24.62;61.04;95213.28;4898199;29;20439;-82
2021/07/28 04:46:24;;;;;;;18.40;13.60;;;;;;;27.57;51.50;95219.75;5091615;27;20535;-82
2021/07/28 04:48:51;;;;;;;18.60;12.43;;;;;;;27.85;54.81;95224.59;5091065;28;20474;-80
2021/07/28 04:51:18;;;;;;;19.40;12.37;;;;;;;27.94;50.67;95217.81;5090801;28;20443;-80
2021/07/28 04:53:45;;;;;;;17.10;12.43;;;;;;;28.11;50.62;95208.00;5055672;28;20439;-81
2021/07/28 04:56:12;;;;;;;22.40;13.07;;;;;;;28.27;50.39;95218.16;5091089;28;20441;-79
2021/07/28 04:58:39;;;;;;;20.07;13.03;;;;;;;28.50;52.33;95213.84;5090741;28;20432;-81
2021/07/28 05:01:06;;;;;;;19.50;12.30;;;;;;;28.82;57.39;95219.72;5090927;28;20486;-80
2021/07/28 05:03:34;;;;;;;22.03;13.57;;;;;;;29.07;58.85;95224.91;5090407;28;20446;-80
2021/07/28 05:06:01;;;;;;;31.33;15.50;;;;;;;29.23;57.14;95229.59;5090668;28;20809;-79
2021/07/28 05:08:28;;;;;;;19.33;12.97;;;;;;;29.47;50.70;95220.38;5090609;28;20519;-81
2021/07/28 05:10:55;;;;;;;20.00;12.80;;;;;;;29.76;54.96;95223.94;5090468;28;20557;-80
2021/07/28 05:13:22;;;;;;;21.90;13.47;;;;;;;30.02;51.52;95217.13;5090491;28;20947;-79
2021/07/28 05:15:50;;;;;;;20.77;14.50;;;;;;;30.23;49.92;95218.34;5090316;28;20440;-79
2021/07/28 05:18:17;;;;;;;29.97;13.70;;;;;;;30.44;52.60;95219.50;5088833;28;20440;-80
2021/07/28 05:20:46;;;;;;;14.43;11.70;;;;;;;30.59;45.80;95208.91;5090310;28;20534;-82
2021/07/28 05:23:13;;;;;;;16.23;12.67;;;;;;;30.70;46.62;95216.19;5090166;28;20535;-80
2021/07/28 05:25:40;;;;;;;18.40;12.27;;;;;;;30.92;44.98;95212.69;5090252;28;20474;-81
2021/07/28 05:28:07;;;;;;;19.00;13.10;;;;;;;31.08;43.72;95214.56;5090072;28;20448;-80
2021/07/28 05:30:34;;;;;;;19.27;13.43;;;;;;;31.07;44.32;95212.91;5090011;28;20436;-79
2021/07/28 05:33:01;;;;;;;17.00;13.03;;;;;;;31.13;45.02;95211.91;5090292;28;20420;-80
2021/07/28 05:35:28;;;;;;;21.07;12.47;;;;;;;31.26;45.30;95208.06;5090230;28;20795;-81
2021/07/28 05:37:59;;;;;;;16.93;13.40;;;;;;;31.25;44.60;95209.13;5090770;28;20508;-81
2021/07/28 05:40:26;;;;;;;14.90;12.37;;;;;;;30.95;44.50;95209.50;5090154;28;20508;-81
2021/07/28 05:42:54;;;;;;;15.70;13.13;;;;;;;30.96;45.38;95209.25;5089825;28;20432;-81
2021/07/28 05:45:20;;;;;;;24.37;13.03;;;;;;;31.15;46.98;95204.34;5089910;28;21072;-81
2021/07/28 05:47:47;;;;;;;13.00;11.17;;;;;;;31.34;44.56;95200.28;5089983;28;20452;-81
2021/07/28 05:50:15;;;;;;;19.83;11.43;;;;;;;31.43;41.74;95197.94;5089724;28;20926;-82
2021/07/28 05:52:42;;;;;;;16.47;12.40;;;;;;;31.58;43.28;95211.72;5089583;28;20519;-81
2021/07/28 05:55:12;;;;;;;20.97;11.40;;;;;;;31.72;43.30;95204.84;5089983;28;20425;-81
2021/07/28 06:04:22;;;;;;;19.80;12.30;;;;;;;31.95;43.06;95198.31;5056228;28;20960;-80
2021/07/28 06:06:49;;;;;;;16.47;13.17;;;;;;;31.24;45.27;95196.66;5055652;28;20517;-81
2021/07/28 06:09:16;;;;;;;20.70;14.07;;;;;;;31.00;46.05;95204.16;5055751;28;20803;-79
2021/07/28 06:11:44;;;;;;;29.77;14.40;;;;;;;30.31;46.82;95204.38;5055481;28;20464;-79
2021/07/28 06:14:11;;;;;;;21.73;13.23;;;;;;;30.04;48.49;95201.50;5055015;28;20934;-79
2021/07/28 06:16:39;;;;;;;18.63;13.30;;;;;;;30.28;47.30;95202.19;5055224;28;20461;-79
2021/07/28 06:19:06;;;;;;;21.00;14.57;;;;;;;30.70;47.04;95197.22;5055249;28;20457;-78
2021/07/28 06:21:34;;;;;;;21.83;13.37;;;;;;;31.04;46.70;95197.97;5020687;28;20916;-79
2021/07/28 06:24:01;;;;;;;18.83;13.07;;;;;;;30.74;46.35;95194.81;5055936;28;20454;-81
2021/07/28 06:26:29;;;;;;;22.13;13.40;;;;;;;31.18;47.65;95195.72;5055185;28;20576;-80
2021/07/28 06:28:57;;;;;;;17.13;13.70;;;;;;;31.42;45.78;95191.72;5037057;28;20438;-80
2021/07/28 06:31:24;;;;;;;20.70;15.53;;;;;;;31.47;43.74;95198.25;5020609;28;20441;-81
2021/07/28 06:33:51;;;;;;;26.07;14.60;;;;;;;31.44;44.25;95197.69;5037268;28;20450;-78
2021/07/28 06:36:18;;;;;;;15.40;13.53;;;;;;;31.67;45.23;95204.75;5055912;28;20430;-80
2021/07/28 06:38:45;;;;;;;16.07;13.00;;;;;;;31.83;44.55;95208.50;5055367;28;20528;-80
2021/07/28 06:41:12;;;;;;;22.17;13.20;;;;;;;32.10;43.09;95208.50;5020679;28;20528;-80
2021/07/28 06:43:39;;;;;;;26.97;13.97;;;;;;;32.21;42.02;95206.69;5055278;28;20456;-79
2021/07/28 06:46:07;;;;;;;21.37;13.80;;;;;;;32.42;41.46;95205.03;5055548;28;20494;-79
2021/07/28 06:48:34;;;;;;;17.57;12.33;;;;;;;32.35;41.01;95210.66;5055037;28;20452;-80
2021/07/28 06:51:01;;;;;;;14.73;13.20;;;;;;;32.41;40.99;95217.78;5055188;28;20433;-80
2021/07/28 06:53:28;;;;;;;14.90;13.37;;;;;;;32.58;41.22;95210.31;5055034;28;20448;-79
2021/07/28 06:55:55;;;;;;;18.37;11.90;;;;;;;32.98;41.03;95211.72;5055586;28;20442;-80
2021/07/28 06:58:22;;;;;;;19.00;13.10;;;;;;;33.01;39.68;95208.47;5019876;28;20794;-79
2021/07/28 07:00:49;;;;;;;16.70;12.73;;;;;;;32.75;39.56;95201.22;5054698;28;20450;-80
2021/07/28 07:03:18;;;;;;;14.40;13.10;;;;;;;32.64;40.53;95214.69;5020061;28;20829;-80
2021/07/28 07:05:45;;;;;;;15.40;12.93;;;;;;;32.61;39.58;95201.63;5036353;28;20486;-80
2021/07/28 07:08:13;;;;;;;17.53;12.67;;;;;;;32.52;41.06;95197.78;5054290;28;20488;-80
2021/07/28 07:10:40;;;;;;;14.87;11.63;;;;;;;32.83;40.23;95200.75;5054920;28;20430;-79
2021/07/28 07:13:07;;;;;;;17.67;12.60;;;;;;;33.02;39.84;95199.25;5053973;28;20430;-80
2021/07/28 07:15:34;;;;;;;16.90;12.03;;;;;;;33.42;39.72;95195.13;5053753;28;20926;-80
2021/07/28 07:18:01;;;;;;;17.20;11.50;;;;;;;33.80;38.54;95204.78;5053628;28;20525;-80
2021/07/28 07:20:29;;;;;;;21.07;12.33;;;;;;;34.11;38.04;95190.16;5018484;28;20529;-79
2021/07/28 07:22:56;;;;;;;17.23;11.53;;;;;;;34.26;37.84;95192.09;5053268;28;20454;-80
2021/07/28 07:25:23;;;;;;;16.40;11.70;;;;;;;34.44;36.75;95188.88;5053456;28;20515;-80
2021/07/28 07:27:50;;;;;;;14.20;12.47;;;;;;;34.45;37.56;95189.72;5053473;28;20446;-80
2021/07/28 07:30:17;;;;;;;14.07;12.00;;;;;;;34.50;36.75;95191.59;5053070;28;20819;-80
2021/07/28 07:32:44;;;;;;;15.60;12.40;;;;;;;34.48;36.42;95181.78;5053209;28;20804;-80
2021/07/28 07:35:12;;;;;;;18.23;11.00;;;;;;;34.59;37.13;95190.78;5052858;28;21015;-80
2021/07/28 07:37:40;;;;;;;15.60;11.70;;;;;;;34.67;36.59;95192.13;5053447;28;20442;-80
2021/07/28 07:40:08;;;;;;;14.97;11.60;;;;;;;34.76;35.85;95185.88;5052985;28;20528;-80
2021/07/28 07:42:35;;;;;;;17.73;11.60;;;;;;;34.65;37.03;95183.41;5053114;28;20442;-80
2021/07/28 07:45:02;;;;;;;21.27;12.77;;;;;;;34.88;37.11;95185.59;5052852;28;20837;-80
2021/07/28 07:47:29;;;;;;;17.87;12.33;;;;;;;35.09;37.20;95179.00;5052928;28;20446;-80
2021/07/28 07:49:56;;;;;;;16.20;11.30;;;;;;;35.33;37.09;95179.25;5053253;28;20545;-80
2021/07/28 07:52:23;;;;;;;22.60;12.40;;;;;;;35.58;35.37;95181.06;5052830;28;20438;-80
2021/07/28 07:54:51;;;;;;;18.63;12.93;;;;;;;35.17;35.47;95176.81;5052981;28;20450;-79
2021/07/28 07:57:18;;;;;;;16.53;12.57;;;;;;;35.27;36.89;95184.94;5052820;28;20441;-80
2021/07/28 07:59:45;;;;;;;22.43;11.90;;;;;;;35.17;36.06;95177.63;5034356;28;20438;-80
2021/07/28 08:02:12;;;;;;;13.87;12.00;;;;;;;35.11;35.69;95181.47;5052615;28;20446;-80
2021/07/28 08:04:39;;;;;;;13.80;12.10;;;;;;;34.84;35.35;95176.34;5052949;28;20540;-79
2021/07/28 08:07:06;;;;;;;23.10;13.20;;;;;;;34.69;37.24;95177.13;5018949;28;20478;-80
2021/07/28 08:09:33;;;;;;;18.00;11.17;;;;;;;34.57;36.55;95175.78;5054052;28;20443;-79
2021/07/28 08:12:01;;;;;;;26.20;11.37;;;;;;;34.51;36.04;95174.16;5053550;28;20910;-80
2021/07/28 08:14:28;;;;;;;23.00;11.70;;;;;;;34.57;36.65;95167.59;5053875;28;20532;-80
2021/07/28 08:16:55;;;;;;;17.23;12.07;;;;;;;34.62;36.29;95167.59;5053825;28;20446;-80
2021/07/28 08:19:22;;;;;;;15.13;10.90;;;;;;;34.03;36.96;95166.19;5053479;28;20539;-80
2021/07/28 08:21:49;;;;;;;17.13;11.97;;;;;;;34.11;36.07;95167.56;5053928;28;20936;-80
2021/07/28 08:24:16;;;;;;;17.00;12.43;;;;;;;33.66;37.68;95166.34;5053584;28;20442;-79
2021/07/28 08:26:44;;;;;;;18.03;11.70;;;;;;;33.76;37.62;95163.66;5054109;28;20482;-79
2021/07/28 08:29:12;;;;;;;16.27;11.03;;;;;;;33.99;36.09;95153.38;5053788;28;20442;-80
2021/07/28 08:31:39;;;;;;;15.47;10.87;;;;;;;33.81;37.86;95150.03;5018540;28;20451;-80
2021/07/28 08:34:06;;;;;;;14.93;12.40;;;;;;;33.99;36.23;95156.13;5053595;28;20444;-80
2021/07/28 08:36:33;;;;;;;13.53;11.43;;;;;;;33.79;36.69;95149.50;5053476;28;20449;-79
2021/07/28 08:39:00;;;;;;;15.17;11.60;;;;;;;33.84;35.19;95146.84;5053811;28;20520;-82
2021/07/28 08:41:27;;;;;;;15.67;11.37;;;;;;;34.12;36.25;95141.97;5054112;28;20528;-83
2021/07/28 08:43:58;;;;;;;12.13;10.03;;;;;;;34.40;35.34;95149.63;5053767;28;20516;-88
2021/07/28 08:46:27;;;;;;;16.30;12.70;;;;;;;34.57;33.79;95151.25;5053902;28;20480;-83
2021/07/28 08:48:55;;;;;;;19.13;10.53;;;;;;;34.83;34.94;95152.03;5053487;28;20517;-84
2021/07/28 08:51:27;;;;;;;19.13;11.07;;;;;;;34.92;33.87;95148.50;5054653;28;20509;-84
2021/07/28 08:53:54;;;;;;;20.83;11.47;;;;;;;34.82;33.13;95145.78;5053577;28;20798;-84
2021/07/28 08:56:26;;;;;;;14.00;10.83;;;;;;;34.78;34.02;95141.97;5053794;28;20958;-86
2021/07/28 08:58:53;;;;;;;25.07;11.60;;;;;;;34.66;33.04;95141.41;5053593;28;20537;-84
2021/07/28 09:01:20;;;;;;;21.20;11.80;;;;;;;34.69;33.90;95146.31;5053229;28;20450;-81
2021/07/28 09:03:48;;;;;;;25.90;12.10;;;;;;;34.65;33.13;95145.25;5053070;28;20544;-80
2021/07/28 09:06:27;;;;;;;18.50;12.60;;;;;;;34.79;32.92;95135.41;5052374;28;20465;-82
2021/07/28 09:08:58;;;;;;;23.13;11.60;;;;;;;34.83;32.84;95135.69;5052843;28;20445;-81
2021/07/28 09:11:25;;;;;;;39.87;14.07;;;;;;;34.87;32.46;95137.59;5053105;28;20426;-79
2021/07/28 09:13:55;;;;;;;23.20;12.70;;;;;;;34.83;32.45;95136.50;5053279;28;20528;-81
2021/07/28 09:16:22;;;;;;;25.13;12.40;;;;;;;34.96;33.47;95137.84;5018336;28;20852;-81
2021/07/28 09:18:51;;;;;;;23.33;12.53;;;;;;;35.09;32.81;95134.53;5053040;28;20981;-81
2021/07/28 09:21:31;;;;;;;20.77;13.40;;;;;;;35.14;33.01;95136.44;5052884;28;20438;-81
2021/07/28 09:24:09;;;;;;;25.60;12.67;;;;;;;35.26;33.82;95132.28;5053613;28;20443;-82
2021/07/28 09:26:42;;;;;;;25.80;15.07;;;;;;;35.40;33.17;95129.81;5052817;28;20481;-80
2021/07/28 09:29:10;;;;;;;18.33;11.97;;;;;;;35.29;32.11;95122.75;5053157;28;20917;-81
2021/07/28 09:31:40;;;;;;;18.17;13.30;;;;;;;35.05;32.74;95122.56;5053992;28;20450;-80
2021/07/28 09:34:29;;;;;;;23.70;13.47;;;;;;;34.79;32.54;95121.78;5056918;28;20433;-80
2021/07/28 09:36:58;;;;;;;26.70;14.63;;;;;;;34.56;33.28;95119.63;5056957;28;20924;-80
2021/07/28 09:39:26;;;;;;;27.30;15.43;;;;;;;34.75;33.87;95115.25;5056625;28;21204;-80
2021/07/28 09:41:54;;;;;;;25.63;13.60;;;;;;;34.62;34.20;95113.06;5056115;28;20433;-80
2021/07/28 09:44:26;;;;;;;27.80;13.40;;;;;;;34.82;34.34;95109.50;5056602;28;20492;-80
2021/07/28 09:47:04;;;;;;;16.10;12.43;;;;;;;34.79;34.25;95108.97;5056148;28;20470;-80
2021/07/28 09:53:07;;;;;;;22.87;13.03;;;;;;;34.94;33.75;95096.38;5055588;28;20429;-87
2021/07/28 09:55:34;;;;;;;25.97;13.60;;;;;;;35.08;34.52;95105.63;5057395;28;20901;-84
2021/07/28 09:58:01;;;;;;;31.83;14.20;;;;;;;35.12;33.96;95094.97;5056407;28;20418;-82
2021/07/28 10:00:29;;;;;;;26.83;13.57;;;;;;;34.86;34.73;95100.50;5056211;28;20529;-82
2021/07/28 10:03:01;;;;;;;27.50;12.67;;;;;;;34.81;33.54;95092.31;5056135;28;20449;-82
2021/07/28 10:05:30;;;;;;;22.87;12.73;;;;;;;34.72;33.92;95097.53;5055986;28;20572;-80
2021/07/28 10:08:03;;;;;;;19.93;13.20;;;;;;;34.82;32.94;95091.22;5020837;28;20493;-82
2021/07/28 10:10:33;;;;;;;21.63;12.00;;;;;;;34.81;32.25;95086.06;5055975;28;20878;-81
2021/07/28 10:13:00;;;;;;;16.37;11.10;;;;;;;34.84;34.91;95086.34;5055834;28;20528;-82
2021/07/28 10:15:28;;;;;;;23.03;12.37;;;;;;;34.81;33.27;95083.31;5056109;28;20425;-81
2021/07/28 10:17:57;;;;;;;22.30;12.20;;;;;;;34.84;32.71;95083.63;5037930;28;20450;-81
2021/07/28 10:20:25;;;;;;;19.13;11.97;;;;;;;34.92;32.29;95091.22;5055788;28;20515;-80
2021/07/28 10:22:54;;;;;;;25.27;12.70;;;;;;;34.79;31.73;95080.88;5056138;28;20513;-80
2021/07/28 10:25:23;;;;;;;19.37;12.83;;;;;;;34.80;34.36;95082.50;5055639;28;20452;-81
2021/07/28 10:27:53;;;;;;;19.60;12.33;;;;;;;34.81;33.52;95075.16;5055807;28;20512;-80
2021/07/28 10:30:21;;;;;;;17.47;11.60;;;;;;;34.84;33.08;95075.44;5020912;28;20438;-80
2021/07/28 10:32:50;;;;;;;20.47;10.77;;;;;;;34.86;32.48;95070.50;5055881;28;20790;-80
2021/07/28 10:35:23;;;;;;;26.13;14.20;;;;;;;34.90;32.55;95074.31;5055545;28;20454;-80
2021/07/28 10:37:50;;;;;;;24.83;12.43;;;;;;;34.91;31.37;95067.75;5055759;28;20438;-82
2021/07/28 10:40:58;;;;;;;19.63;11.40;;;;;;;34.96;31.67;95067.75;5055716;28;20496;-87
2021/07/28 10:43:25;;;;;;;25.80;11.40;;;;;;;34.69;31.08;95064.53;5013086;28;20455;-79
2021/07/28 10:45:57;;;;;;;12.53;11.23;;;;;;;34.82;33.02;95068.59;5012742;28;20475;-79
2021/07/28 10:48:52;;;;;;;23.30;9.57;;;;;;;34.59;30.96;95054.47;5012833;28;20530;-79
2021/07/28 10:51:51;;;;;;;16.17;10.70;;;;;;;34.72;31.09;95053.91;5013270;28;20452;-81
2021/07/28 10:54:18;;;;;;;18.40;10.97;;;;;;;34.70;30.25;95055.28;4996581;28;20479;-81
2021/07/28 10:57:08;;;;;;;24.93;10.70;;;;;;;34.90;30.86;95057.13;5013025;28;20454;-80
2021/07/28 10:59:41;;;;;;;20.23;10.40;;;;;;;34.90;30.91;95052.50;4980172;28;20448;-80
2021/07/28 11:02:08;;;;;;;18.73;10.47;;;;;;;34.88;30.90;95049.22;5012566;28;20447;-80
2021/07/28 11:04:35;;;;;;;18.20;11.23;;;;;;;34.99;33.57;95045.38;5012872;28;20534;-81
2021/07/28 11:07:01;;;;;;;19.63;10.40;;;;;;;34.93;31.54;95041.03;5011730;28;20491;-81
2021/07/28 11:09:29;;;;;;;36.70;12.30;;;;;;;35.03;31.25;95046.47;5011682;28;20985;-80
2021/07/28 11:11:57;;;;;;;16.07;10.20;;;;;;;34.99;31.25;95039.94;5012433;28;20458;-80
2021/07/28 11:14:26;;;;;;;16.27;10.10;;;;;;;34.88;31.39;95046.50;5036195;28;20446;-82
2021/07/28 11:16:54;;;;;;;16.37;10.03;;;;;;;34.94;28.99;95039.94;5054562;28;20464;-81
2021/07/28 11:19:21;;;;;;;19.07;10.40;;;;;;;34.94;31.31;95031.75;5054590;28;20540;-81
2021/07/28 11:21:48;;;;;;;24.10;10.87;;;;;;;34.92;30.15;95035.84;5019257;28;20441;-81
2021/07/28 11:24:17;;;;;;;22.53;11.60;;;;;;;35.05;32.23;95033.34;5054505;28;20453;-81
2021/07/28 11:26:45;;;;;;;20.83;9.80;;;;;;;35.01;31.37;95032.28;5054359;28;20481;-81
2021/07/28 11:29:17;;;;;;;22.27;10.70;;;;;;;35.03;30.88;95032.00;5054484;28;20453;-81
2021/07/28 11:31:48;;;;;;;22.37;10.17;;;;;;;35.01;31.28;95034.19;5054671;28;20449;-83
2021/07/28 11:34:17;;;;;;;17.53;9.97;;;;;;;34.99;30.71;95034.47;5054052;28;20442;-87
2021/07/28 11:36:46;;;;;;;23.77;9.93;;;;;;;34.76;31.38;95021.44;5054404;28;20450;-81
2021/07/28 11:39:16;;;;;;;18.23;9.20;;;;;;;34.85;31.76;95022.53;5054005;28;20878;-84
2021/07/28 11:41:45;;;;;;;18.33;10.20;;;;;;;34.87;31.44;95014.88;5055173;28;20493;-87
2021/07/28 11:44:12;;;;;;;16.20;10.70;;;;;;;34.91;31.20;95010.50;5054513;28;20465;-83
2021/07/28 11:46:39;;;;;;;16.43;10.30;;;;;;;35.06;30.85;95010.44;5053831;28;20572;-82
2021/07/28 11:49:09;;;;;;;21.53;10.47;;;;;;;35.19;30.10;95005.44;5053930;28;20893;-83
2021/07/28 11:51:37;;;;;;;23.57;10.57;;;;;;;35.23;30.57;95001.88;5054538;28;20421;-82
2021/07/28 11:54:10;;;;;;;15.77;9.63;;;;;;;35.15;31.72;94997.00;5053517;28;20936;-82
2021/07/28 11:56:38;;;;;;;17.60;10.23;;;;;;;35.17;31.76;94999.44;5054263;28;20454;-80
2021/07/28 11:59:05;;;;;;;19.37;10.60;;;;;;;35.04;29.99;94996.25;5053318;28;20456;-79
2021/07/28 12:01:33;;;;;;;18.93;10.73;;;;;;;35.16;31.63;94986.91;5052901;28;20441;-79
2021/07/28 12:04:03;;;;;;;15.83;10.40;;;;;;;35.14;29.74;94984.47;5053543;28;20472;-79
2021/07/28 12:06:37;;;;;;;21.57;10.70;;;;;;;35.23;29.77;94981.94;5053216;28;20489;-79
2021/07/28 12:09:14;;;;;;;20.07;9.53;;;;;;;35.22;29.39;94977.59;5053158;28;20446;-79
2021/07/28 12:11:55;;;;;;;25.93;10.20;;;;;;;35.38;29.71;94973.72;5035453;28;20953;-89
2021/07/28 12:14:27;;;;;;;14.70;9.20;;;;;;;35.27;28.76;94975.63;5054678;28;20525;-88
2021/07/28 12:16:55;;;;;;;17.33;9.83;;;;;;;35.16;29.49;94974.09;5054215;28;20525;-90
2021/07/28 12:19:26;;;;;;;20.07;10.97;;;;;;;35.17;30.15;94970.25;5054461;28;20525;-83
2021/07/28 12:21:57;;;;;;;22.67;8.90;;;;;;;35.26;29.05;94965.00;5053261;28;20441;-79
2021/07/28 12:24:34;;;;;;;18.43;10.17;;;;;;;35.41;28.61;94966.84;5052673;28;20521;-79
2021/07/28 12:27:39;;;;;;;23.53;10.27;;;;;;;35.51;28.81;94967.59;5053148;28;20487;-79
2021/07/28 12:30:09;;;;;;;20.47;9.83;;;;;;;35.53;28.99;94953.66;5053435;28;20811;-81
2021/07/28 12:32:38;;;;;;;19.73;9.70;;;;;;;35.62;26.97;94958.25;5053370;28;20445;-79
2021/07/28 12:35:06;;;;;;;26.80;10.63;;;;;;;35.69;28.21;94953.25;5052735;28;21004;-78
2021/07/28 12:37:35;;;;;;;14.20;9.50;;;;;;;35.54;29.11;94955.28;5052887;28;20456;-79
2021/07/28 12:40:02;;;;;;;21.30;9.73;;;;;;;35.32;27.30;94948.34;5053132;28;20446;-83
2021/07/28 12:42:30;;;;;;;19.00;10.30;;;;;;;35.41;28.74;94951.28;5053851;28;20595;-79
2021/07/28 12:44:57;;;;;;;27.87;9.47;;;;;;;35.43;27.98;94956.47;5053462;28;20488;-80
2021/07/28 12:47:24;;;;;;;21.53;8.97;;;;;;;35.37;29.12;94961.97;5034796;28;20492;-80
2021/07/28 12:49:52;;;;;;;16.27;8.90;;;;;;;35.19;28.66;94948.97;5053223;28;20435;-80
2021/07/28 12:52:19;;;;;;;23.47;8.37;;;;;;;35.19;29.40;94948.97;5034791;28;20437;-81
2021/07/28 12:54:47;;;;;;;10.80;7.80;;;;;;;35.14;30.25;94948.19;5051626;28;20518;-80
2021/07/28 12:57:14;;;;;;;21.53;9.83;;;;;;;35.02;29.08;94951.25;5053285;28;20434;-80
2021/07/28 12:59:41;;;;;;;19.73;8.77;;;;;;;34.99;29.93;94947.19;5053075;28;20909;-82
2021/07/28 13:02:08;;;;;;;31.60;9.50;;;;;;;35.05;30.77;94943.31;5052962;28;20442;-82
2021/07/28 13:04:35;;;;;;;21.20;9.97;;;;;;;35.01;30.85;94936.81;5053220;28;20455;-86
2021/07/28 13:07:11;;;;;;;21.03;9.87;;;;;;;34.94;30.56;94941.75;5053283;28;20509;-81
2021/07/28 13:09:38;;;;;;;17.20;8.90;;;;;;;34.97;31.51;94938.44;5057069;28;20425;-80
2021/07/28 13:12:07;;;;;;;21.50;9.53;;;;;;;34.97;30.92;94941.16;5038320;28;20534;-76
2021/07/28 13:14:34;;;;;;;23.90;9.43;;;;;;;34.91;30.30;94942.31;5057524;28;20472;-82
2021/07/28 13:17:01;;;;;;;19.30;9.53;;;;;;;34.83;30.07;94937.41;5057117;28;20532;-82
2021/07/28 13:19:28;;;;;;;29.40;9.63;;;;;;;34.73;32.34;94929.31;5056776;28;20440;-82
2021/07/28 13:21:55;;;;;;;24.30;9.47;;;;;;;34.78;33.52;94927.34;5056563;28;20438;-82
2021/07/28 13:24:22;;;;;;;15.63;9.03;;;;;;;34.80;33.51;94927.06;5057422;28;20442;-85
2021/07/28 13:26:49;;;;;;;16.60;9.37;;;;;;;34.83;34.16;94918.31;5057246;28;20954;-81
2021/07/28 13:29:17;;;;;;;20.67;9.97;;;;;;;34.86;35.50;94920.53;5055219;28;20448;-82
2021/07/28 13:31:44;;;;;;;24.87;11.00;;;;;;;34.78;34.62;94908.28;5056787;28;20448;-81
2021/07/28 13:34:11;;;;;;;18.27;9.50;;;;;;;34.80;35.66;94910.72;5056701;28;20894;-82